Time;durP1;ratioP1;P1;durP2;ratioP2;P2;SDS_P1;SDS_P2;PMS_P1;PMS_P2;Temp;Humidity;BMP_temperature;BMP_pressure;BME280_temperature;BME280_humidity;BME280_pressure;Samples;Min_cycle;Max_cycle;Signal;HPM_P1;HPM_P2
2021/07/15 00:01:15;;;;;;;15.50;14.00;;;;;;;25.41;55.70;94276.67;827493;71;32787;-74
2021/07/15 00:16:12;;;;;;;16.70;15.00;;;;;;;25.88;54.56;94281.30;833871;71;30303;-74
2021/07/15 00:31:19;;;;;;;17.87;16.27;;;;;;;25.25;56.96;94287.24;827313;71;33679;-72
2021/07/15 00:46:09;;;;;;;18.37;15.60;;;;;;;25.45;55.17;94291.62;833942;71;30601;-74
2021/07/15 01:01:09;;;;;;;17.60;16.00;;;;;;;25.65;56.56;94273.13;828228;71;30346;-73
2021/07/15 01:16:17;;;;;;;16.23;14.73;;;;;;;25.67;57.23;94268.13;834137;71;30300;-72
2021/07/15 01:31:09;;;;;;;17.13;15.53;;;;;;;25.42;56.33;94270.89;828260;71;29775;-73
2021/07/15 01:46:15;;;;;;;17.20;15.60;;;;;;;25.69;55.69;94263.13;833875;71;32881;-73
2021/07/15 02:01:11;;;;;;;17.33;15.70;;;;;;;26.44;52.90;94276.00;833867;71;30558;-75
2021/07/15 02:16:09;;;;;;;17.50;15.93;;;;;;;26.67;51.59;94284.33;828269;71;29706;-75
2021/07/15 02:31:17;;;;;;;16.63;15.17;;;;;;;;;;833837;71;32791;-75
2021/07/15 02:46:15;;;;;;;17.10;15.50;;;;;;;27.00;50.83;94282.14;827409;71;32681;-74
2021/07/15 03:16:08;;;;;;;17.67;15.97;;;;;;;26.82;51.28;94274.80;833922;71;30099;-73
2021/07/15 03:31:10;;;;;;;16.70;15.20;;;;;;;26.80;100.00;123554.15;828155;71;30668;-75
2021/07/15 03:46:09;;;;;;;19.77;17.87;;;;;;;27.00;51.15;123554.15;834143;71;29739;-75
2021/07/15 04:01:14;;;;;;;18.70;16.90;;;;;;;27.09;52.40;94285.14;828758;71;31797;-73
2021/07/15 04:16:20;;;;;;;21.80;19.70;;;;;;;26.57;55.98;94293.22;828343;71;29874;-75
2021/07/15 04:31:20;;;;;;;22.07;19.60;;;;;;;26.90;55.02;94287.80;833898;71;30889;-75
2021/07/15 04:46:10;;;;;;;121.00;109.10;;;;;;;25.99;58.14;94287.41;793903;74;30393;-77
2021/07/15 05:01:09;;;;;;;28.70;24.53;;;;;;;25.54;60.07;94297.33;828670;71;29787;-76
2021/07/15 05:16:15;;;;;;;29.03;24.53;;;;;;;25.49;62.02;94307.73;827547;71;32810;-75
2021/07/15 05:31:15;;;;;;;28.43;23.07;;;;;;;25.58;62.00;94308.84;827598;71;33190;-76
2021/07/15 05:46:16;;;;;;;24.50;21.73;;;;;;;25.92;60.70;94303.58;834143;71;32720;-77
2021/07/15 06:01:13;;;;;;;23.60;20.97;;;;;;;26.18;59.56;94319.20;829286;71;32651;-77
2021/07/15 06:16:10;;;;;;;25.20;21.80;;;;;;;26.57;58.60;94300.73;828905;71;30549;-77
2021/07/15 06:31:09;;;;;;;24.10;21.50;;;;;;;26.96;57.34;94285.44;834249;71;30325;-75
2021/07/15 06:46:10;;;;;;;23.83;21.30;;;;;;;27.64;55.84;165961.02;828763;71;30333;-77
2021/07/15 07:01:15;;;;;;;23.30;20.80;;;;;;;28.08;54.74;94275.05;833753;71;33209;-75
2021/07/15 07:16:09;;;;;;;24.80;21.40;;;;;;;28.47;53.55;94263.53;828000;71;30266;-74
2021/07/15 07:31:15;;;;;;;24.90;22.33;;;;;;;28.91;51.96;94249.53;828595;71;32732;-77
2021/07/15 07:46:08;;;;;;;23.43;21.07;;;;;;;29.36;50.93;94233.70;835285;71;30464;-76
2021/07/15 08:01:19;;;;;;;23.50;21.10;;;;;;;29.56;49.95;94231.00;827550;71;32728;-77
2021/07/15 08:16:08;;;;;;;22.10;20.00;;;;;;;30.09;48.13;94226.25;828252;71;29723;-77
2021/07/15 08:31:09;;;;;;;19.63;17.87;;;;;;;30.61;46.80;94224.13;821895;70;29832;-76
2021/07/15 08:46:10;;;;;;;19.50;17.40;;;;;;;30.78;46.34;94202.44;828061;71;30165;-75
2021/07/15 09:16:16;;;;;;;23.10;20.63;;;;;;;32.50;43.30;94185.41;827434;71;33310;-76
2021/07/15 09:31:21;;;;;;;20.00;17.97;;;;;;;32.66;42.65;94180.47;820518;71;33254;-78
2021/07/15 09:46:18;;;;;;;22.77;20.60;;;;;;;32.60;42.79;94175.44;828112;71;31158;-75
2021/07/15 10:01:24;;;;;;;21.30;19.40;;;;;;;32.78;42.73;94170.77;834082;71;30197;-78
2021/07/15 10:16:13;;;;;;;23.23;21.23;;;;;;;32.66;43.37;94151.94;828263;71;32032;-77
2021/07/15 10:31:18;;;;;;;21.73;19.67;;;;;;;32.57;43.44;94136.32;833972;71;32706;-78
2021/07/15 10:46:09;;;;;;;19.37;17.50;;;;;;;32.98;41.99;94126.98;813772;70;29857;-77
2021/07/15 11:01:41;;;;;;;19.90;18.00;;;;;;;32.65;42.49;94121.30;833898;71;33194;-75
2021/07/15 11:16:09;;;;;;;18.73;16.83;;;;;;;32.90;41.94;94108.19;827890;71;31160;-78
2021/07/15 11:31:10;;;;;;;18.90;17.20;;;;;;;32.89;41.65;94090.98;828137;71;30771;-76
2021/07/15 11:46:11;;;;;;;18.47;16.57;;;;;;;32.91;40.92;94078.46;833946;70;30429;-77
2021/07/15 12:01:26;;;;;;;17.83;16.33;;;;;;;32.81;40.64;94084.25;828164;71;29680;-78
2021/07/15 12:16:22;;;;;;;19.00;17.30;;;;;;;32.97;40.66;94064.28;834127;71;32771;-78
2021/07/15 12:31:45;;;;;;;19.20;17.60;;;;;;;33.06;40.07;94061.02;833879;71;33299;-76
2021/07/15 12:46:51;;;;;;;19.27;17.50;;;;;;;33.04;40.29;94045.75;827341;71;33172;-76
2021/07/15 13:01:27;;;;;;;19.47;17.57;;;;;;;33.32;39.04;94027.64;827183;71;32787;-76
2021/07/15 13:16:24;;;;;;;19.70;17.90;;;;;;;33.23;38.73;94026.23;827472;71;32717;-76
2021/07/15 13:31:17;;;;;;;19.53;17.83;;;;;;;33.27;38.38;94009.78;828323;71;30240;-77
2021/07/15 13:46:18;;;;;;;19.93;18.13;;;;;;;33.26;39.59;94002.23;828557;71;30236;-76
2021/07/15 14:01:25;;;;;;;20.63;18.43;;;;;;;33.27;38.98;93993.46;828081;71;33119;-76
2021/07/15 14:16:15;;;;;;;19.30;17.40;;;;;;;33.16;38.18;93970.02;828155;71;29778;-77
2021/07/15 14:31:33;;;;;;;18.83;17.03;;;;;;;32.83;38.09;93952.16;827341;71;33170;-77
2021/07/15 14:46:27;;;;;;;19.10;17.13;;;;;;;32.66;37.97;93931.22;828310;71;32727;-73
2021/07/15 15:16:08;;;;;;;17.03;15.40;;;;;;;32.26;38.30;93891.71;828870;71;29778;-76
2021/07/15 15:31:11;;;;;;;16.63;15.03;;;;;;;32.22;38.00;93893.22;827879;71;31492;-77
2021/07/15 15:46:16;;;;;;;22.20;16.30;;;;;;;32.02;38.63;93910.42;828347;71;32724;-76
2021/07/15 16:01:09;;;;;;;18.40;16.60;;;;;;;31.88;39.99;93925.95;830023;71;30271;-80
2021/07/15 16:16:33;;;;;;;19.20;17.30;;;;;;;31.51;41.46;93938.44;824077;71;33275;-80
2021/07/15 16:31:08;;;;;;;18.70;16.93;;;;;;;31.20;41.91;93941.67;829788;71;29835;-78
2021/07/15 16:46:09;;;;;;;18.53;16.80;;;;;;;30.71;42.35;93944.06;828201;71;29791;-79
2021/07/15 17:01:15;;;;;;;18.30;16.50;;;;;;;30.26;42.56;93962.51;793010;74;32886;-80
2021/07/15 17:16:11;;;;;;;16.87;15.10;;;;;;;29.88;42.47;93973.16;833959;71;32155;-78
2021/07/15 17:31:16;;;;;;;15.73;14.27;;;;;;;29.60;42.70;93951.61;833808;71;32966;-79
2021/07/15 17:46:16;;;;;;;13.00;11.70;;;;;;;29.38;39.12;93953.48;833716;71;32763;-80
2021/07/15 17:47:19;;;;;;;13.60;12.30;;;;;;;29.33;39.05;93950.68;821692;72;27410;-83
2021/07/15 18:01:21;;;;;;;11.13;10.03;;;;;;;29.36;35.72;93961.27;827124;71;33322;-75
2021/07/15 18:16:18;;;;;;;11.43;10.43;;;;;;;29.30;34.76;93996.70;827293;71;32809;-78
2021/07/15 18:31:19;;;;;;;15.03;13.13;;;;;;;29.05;38.57;94022.31;827280;71;33305;-81
2021/07/15 18:46:08;;;;;;;14.50;11.83;;;;;;;28.61;38.98;94027.08;828200;71;29488;-80
2021/07/15 19:01:27;;;;;;;14.00;12.60;;;;;;;28.46;39.12;94027.13;827344;71;32739;-77
2021/07/15 19:16:26;;;;;;;12.73;11.53;;;;;;;28.14;40.39;94032.51;817087;70;32852;-78
2021/07/15 19:31:23;;;;;;;12.33;11.23;;;;;;;27.92;40.59;94031.54;827484;71;32797;-76
2021/07/15 19:46:15;;;;;;;10.80;9.90;;;;;;;27.74;40.29;94029.09;829161;71;29385;-76
2021/07/15 20:01:18;;;;;;;12.47;11.27;;;;;;;27.56;40.91;94022.62;828258;71;32632;-78
2021/07/15 20:16:13;;;;;;;12.20;10.90;;;;;;;27.38;41.80;123554.15;829418;71;29912;-78
2021/07/15 20:31:22;;;;;;;12.97;11.70;;;;;;;27.23;42.49;94022.93;826856;71;29732;-78
2021/07/15 20:47:08;;;;;;;13.20;12.00;;;;;;;27.22;42.79;94026.75;824398;71;33401;-75
2021/07/15 21:16:10;;;;;;;12.83;11.70;;;;;;;26.23;44.70;93976.39;828442;71;30078;-77
2021/07/15 21:31:14;;;;;;;14.57;10.70;;;;;;;;;;833887;71;32749;-76
2021/07/15 21:46:18;;;;;;;12.40;11.20;;;;;;;;;;827354;71;32759;-78
2021/07/15 22:01:08;;;;;;;12.13;10.93;;;;;;;;;;828213;71;29724;-77
2021/07/15 22:16:08;;;;;;;12.27;11.07;;;;;;;;;;828137;71;30316;-78
2021/07/15 22:31:15;;;;;;;13.97;12.33;;;;;;;27.84;46.88;94156.86;827374;71;32972;-76
2021/07/15 22:46:15;;;;;;;12.53;11.30;;;;;;;27.84;47.34;94125.84;827855;71;33252;-79
2021/07/15 23:01:09;;;;;;;12.13;10.90;;;;;;;27.66;47.70;94158.45;828097;71;30179;-78
2021/07/15 23:16:12;;;;;;;10.97;9.97;;;;;;;27.11;48.32;94105.02;828243;71;31625;-76
2021/07/15 23:31:13;;;;;;;8.07;7.20;;;;;;;;;;828873;71;32693;-76
2021/07/15 23:46:08;;;;;;;7.73;7.03;;;;;;;25.61;47.23;94039.13;828222;71;30210;-75
